createdAt,value
2022-10-06T00:00:39.465Z,97.60
2022-10-06T00:03:06.292Z,97.80
2022-10-06T00:05:33.098Z,98.00
2022-10-06T00:08:00.759Z,98.10
2022-10-06T00:10:27.898Z,98.20
2022-10-06T00:12:54.956Z,98.30
2022-10-06T00:15:27.458Z,98.00
2022-10-06T00:17:54.908Z,98.10
2022-10-06T00:20:22.087Z,97.80
2022-10-06T00:22:49.930Z,97.80
2022-10-06T00:25:19.813Z,97.70
2022-10-06T00:27:49.172Z,97.70
2022-10-06T00:30:20.300Z,97.40
2022-10-06T00:33:00.771Z,97.80
2022-10-06T00:35:34.269Z,97.60
2022-10-06T00:38:01.912Z,97.50
2022-10-06T00:40:29.891Z,97.70
2022-10-06T00:43:02.617Z,97.40
2022-10-06T00:45:44.385Z,97.60
2022-10-06T00:48:21.483Z,97.80
2022-10-06T00:50:48.534Z,97.90
2022-10-06T00:53:16.754Z,97.90
2022-10-06T00:55:43.745Z,97.30
2022-10-06T00:58:10.889Z,97.80
2022-10-06T01:00:37.946Z,98.00
2022-10-06T01:03:14.397Z,97.90
2022-10-06T01:05:46.568Z,98.00
2022-10-06T01:08:14.727Z,98.00
2022-10-06T01:10:42.913Z,98.00
2022-10-06T01:13:11.197Z,97.90
2022-10-06T01:15:54.556Z,98.00
2022-10-06T01:18:24.141Z,97.90
2022-10-06T01:21:11.827Z,97.70
2022-10-06T01:23:39.256Z,98.00
2022-10-06T01:26:10.999Z,98.30
2022-10-06T01:28:39.199Z,98.20
2022-10-06T01:31:08.261Z,97.80
2022-10-06T01:33:35.204Z,97.70
2022-10-06T01:36:02.375Z,97.60
2022-10-06T01:38:29.506Z,97.80
2022-10-06T01:41:01.288Z,97.80
2022-10-06T01:43:28.339Z,97.40
2022-10-06T01:45:56.912Z,97.40
2022-10-06T01:48:24.789Z,97.40
2022-10-06T01:50:52.444Z,97.80
2022-10-06T01:53:19.273Z,97.80
2022-10-06T01:55:46.385Z,97.80
2022-10-06T01:58:17.650Z,97.80
2022-10-06T02:00:45.425Z,97.80
2022-10-06T02:03:12.416Z,97.90
2022-10-06T02:05:39.096Z,97.80
2022-10-06T02:08:05.989Z,97.90
2022-10-06T02:10:34.772Z,97.80
2022-10-06T02:13:05.061Z,97.60
2022-10-06T02:15:33.334Z,97.50
2022-10-06T02:18:00.241Z,97.50
2022-10-06T02:20:27.435Z,97.60
2022-10-06T02:22:54.087Z,97.90
2022-10-06T02:25:20.777Z,97.80
2022-10-06T02:27:48.254Z,97.50
2022-10-06T02:30:15.846Z,97.50
2022-10-06T02:32:44.119Z,97.70
2022-10-06T02:35:15.221Z,97.70
2022-10-06T02:37:43.596Z,97.30
2022-10-06T02:40:16.238Z,97.10
2022-10-06T02:42:45.556Z,97.30
2022-10-06T02:45:14.322Z,97.80
2022-10-06T02:47:41.351Z,98.00
2022-10-06T02:50:08.513Z,97.70
2022-10-06T02:52:37.929Z,98.10
2022-10-06T02:55:06.070Z,98.00
2022-10-06T02:57:32.743Z,97.60
2022-10-06T03:00:00.382Z,97.60
2022-10-06T03:02:30.772Z,97.40
2022-10-06T03:04:57.640Z,97.50
2022-10-06T03:07:24.348Z,97.50
2022-10-06T03:09:51.381Z,97.50
2022-10-06T03:12:18.058Z,97.30
2022-10-06T03:14:45.309Z,97.60
2022-10-06T03:17:12.044Z,97.60
2022-10-06T03:19:45.407Z,97.70
2022-10-06T03:22:12.211Z,97.40
2022-10-06T03:24:45.456Z,97.30
2022-10-06T03:27:12.171Z,97.60
2022-10-06T03:29:38.884Z,97.50
2022-10-06T03:32:05.542Z,97.60
2022-10-06T03:34:33.484Z,97.50
2022-10-06T03:37:02.992Z,97.30
2022-10-06T03:39:39.441Z,97.70
2022-10-06T03:42:06.329Z,97.90
2022-10-06T03:44:34.940Z,98.10
2022-10-06T03:47:02.228Z,97.90
2022-10-06T03:49:29.194Z,97.60
2022-10-06T03:51:55.956Z,97.60
2022-10-06T03:54:27.987Z,97.50
2022-10-06T03:56:55.400Z,97.70
2022-10-06T03:59:22.205Z,97.60
2022-10-06T04:01:50.443Z,97.70
2022-10-06T04:04:24.886Z,97.90
2022-10-06T04:06:57.202Z,97.50
2022-10-06T04:09:23.929Z,97.40
2022-10-06T04:11:52.447Z,97.60
2022-10-06T04:14:20.132Z,97.60
2022-10-06T04:16:49.384Z,97.80
2022-10-06T04:19:27.607Z,97.90
2022-10-06T04:21:56.068Z,97.70
2022-10-06T04:24:24.546Z,97.60
2022-10-06T04:26:52.371Z,97.60
2022-10-06T04:29:20.469Z,97.60
2022-10-06T04:31:52.032Z,97.40
2022-10-06T04:34:25.147Z,97.40
2022-10-06T04:36:53.503Z,97.40
2022-10-06T04:39:20.519Z,97.70
2022-10-06T04:41:47.614Z,98.10
2022-10-06T04:44:32.141Z,98.10
2022-10-06T04:47:01.425Z,98.30
2022-10-06T04:49:28.473Z,98.30
2022-10-06T04:51:56.378Z,98.30
2022-10-06T04:54:23.357Z,98.30
2022-10-06T04:56:56.152Z,98.30
2022-10-06T04:59:44.725Z,98.30
2022-10-06T05:02:13.549Z,98.30
2022-10-06T05:04:41.455Z,98.30
2022-10-06T05:07:08.182Z,98.30
2022-10-06T05:09:34.893Z,98.30
2022-10-06T05:12:02.655Z,98.30
2022-10-06T05:14:29.696Z,98.20
2022-10-06T05:16:57.152Z,98.30
2022-10-06T05:19:23.916Z,98.30
2022-10-06T05:21:50.679Z,98.30
2022-10-06T05:24:24.040Z,98.00
2022-10-06T05:26:56.300Z,98.30
2022-10-06T05:29:25.320Z,98.30
2022-10-06T05:31:53.554Z,98.30
2022-10-06T05:34:24.712Z,98.30
2022-10-06T05:36:51.929Z,98.30
2022-10-06T05:39:19.426Z,98.30
2022-10-06T05:41:51.513Z,98.30
2022-10-06T05:44:18.505Z,98.30
2022-10-06T05:46:45.611Z,98.20
2022-10-06T05:49:13.340Z,98.30
2022-10-06T05:51:47.910Z,98.30
2022-10-06T05:54:22.263Z,98.30
2022-10-06T05:56:50.042Z,98.30
2022-10-06T05:59:16.808Z,98.30
2022-10-06T06:01:44.010Z,98.30
2022-10-06T06:04:18.052Z,98.30
2022-10-06T06:06:51.928Z,98.30
2022-10-06T06:09:28.759Z,98.30
2022-10-06T06:12:03.629Z,98.30
2022-10-06T06:14:56.872Z,98.30
2022-10-06T06:17:27.059Z,98.30
2022-10-06T06:19:53.684Z,98.30
2022-10-06T06:22:20.754Z,98.30
2022-10-06T06:24:50.022Z,98.30
2022-10-06T06:27:17.222Z,98.30
2022-10-06T06:29:45.096Z,98.30
2022-10-06T06:32:11.910Z,98.30
2022-10-06T06:34:38.594Z,98.30
2022-10-06T06:37:12.817Z,98.30
2022-10-06T06:39:41.721Z,98.30
2022-10-06T06:42:08.527Z,98.30
2022-10-06T06:44:50.341Z,98.30
2022-10-06T06:47:28.974Z,98.30
2022-10-06T06:49:58.851Z,98.30
2022-10-06T06:52:26.237Z,98.30
2022-10-06T06:54:53.555Z,98.30
2022-10-06T06:57:20.219Z,98.30
2022-10-06T06:59:49.901Z,98.30
2022-10-06T07:02:17.958Z,98.30
2022-10-06T07:04:45.962Z,98.30
2022-10-06T07:07:15.578Z,98.30
2022-10-06T07:09:42.496Z,98.30
2022-10-06T07:12:11.515Z,98.30
2022-10-06T07:15:01.643Z,98.30
2022-10-06T07:17:48.741Z,98.30
2022-10-06T07:20:34.512Z,98.30
2022-10-06T07:23:19.715Z,98.30
2022-10-06T07:25:46.421Z,98.30
2022-10-06T07:28:17.052Z,98.30
2022-10-06T07:30:44.809Z,98.30
2022-10-06T07:33:15.377Z,98.30
2022-10-06T07:35:44.063Z,98.30
2022-10-06T07:38:11.617Z,98.30
2022-10-06T07:43:42.178Z,97.40
2022-10-06T07:46:13.007Z,96.80
2022-10-06T07:48:48.502Z,96.10
2022-10-06T07:51:18.039Z,95.60
2022-10-06T07:53:50.079Z,95.50
2022-10-06T07:56:48.738Z,94.60
2022-10-06T07:59:15.422Z,94.50
2022-10-06T08:01:44.454Z,93.20
2022-10-06T08:04:11.669Z,93.10
2022-10-06T08:06:38.517Z,93.10
2022-10-06T08:09:05.590Z,94.00
2022-10-06T08:11:32.594Z,93.40
2022-10-06T08:13:59.989Z,92.60
2022-10-06T08:16:31.266Z,91.70
2022-10-06T08:18:59.336Z,91.80
2022-10-06T08:21:31.796Z,89.60
2022-10-06T08:23:59.146Z,89.80
2022-10-06T08:26:27.943Z,90.00
2022-10-06T08:28:59.689Z,89.80
2022-10-06T08:31:26.526Z,89.60
2022-10-06T08:33:56.617Z,89.30
2022-10-06T08:36:30.890Z,89.80
2022-10-06T08:38:59.027Z,89.60
2022-10-06T08:41:33.136Z,89.60
2022-10-06T08:44:05.679Z,88.90
2022-10-06T08:46:40.322Z,89.10
2022-10-06T08:49:10.687Z,89.10
2022-10-06T08:51:52.849Z,88.80
2022-10-06T08:54:25.466Z,89.30
2022-10-06T08:57:10.119Z,89.30
2022-10-06T08:59:37.048Z,88.70
2022-10-06T09:02:12.724Z,88.00
2022-10-06T09:04:39.510Z,88.50
2022-10-06T09:07:35.476Z,87.50
2022-10-06T09:10:05.125Z,88.30
2022-10-06T09:12:56.793Z,88.20
2022-10-06T09:15:30.217Z,87.70
2022-10-06T09:18:07.211Z,86.40
2022-10-06T09:20:39.804Z,85.70
2022-10-06T09:23:15.601Z,84.50
2022-10-06T09:25:43.138Z,84.00
2022-10-06T09:28:16.106Z,84.40
2022-10-06T09:30:43.351Z,84.30
2022-10-06T09:33:20.861Z,83.70
2022-10-06T09:36:12.320Z,83.80
2022-10-06T09:38:56.678Z,84.20
2022-10-06T09:41:39.104Z,83.70
2022-10-06T09:44:23.459Z,82.90
2022-10-06T09:46:50.379Z,83.70
2022-10-06T09:49:21.442Z,83.40
2022-10-06T09:52:16.048Z,84.00
2022-10-06T09:54:44.471Z,84.50
2022-10-06T09:57:25.166Z,83.10
2022-10-06T09:59:52.309Z,81.80
2022-10-06T10:02:31.052Z,80.80
2022-10-06T10:04:58.344Z,80.90
2022-10-06T10:07:27.921Z,81.10
2022-10-06T10:10:30.955Z,79.80
2022-10-06T10:12:59.837Z,78.90
2022-10-06T10:15:31.278Z,78.40
2022-10-06T10:18:10.757Z,78.80
2022-10-06T10:20:50.621Z,79.00
2022-10-06T10:23:27.285Z,79.20
2022-10-06T10:26:16.111Z,79.90
2022-10-06T10:28:51.756Z,79.20
2022-10-06T10:31:42.328Z,78.30
2022-10-06T10:34:24.357Z,74.60
2022-10-06T10:36:59.682Z,71.50
2022-10-06T10:39:41.980Z,67.30
2022-10-06T10:42:27.000Z,65.00
2022-10-06T10:45:04.236Z,64.50
2022-10-06T10:47:41.801Z,64.30
2022-10-06T10:50:24.488Z,66.20
2022-10-06T10:52:55.272Z,68.40
2022-10-06T10:55:28.073Z,68.20
2022-10-06T10:58:01.378Z,68.00
2022-10-06T11:00:31.330Z,64.90
2022-10-06T11:03:00.848Z,63.00
2022-10-06T11:05:43.692Z,62.10
2022-10-06T11:08:13.073Z,61.20
2022-10-06T11:10:58.617Z,61.00
2022-10-06T11:13:40.680Z,60.90
2022-10-06T11:16:07.441Z,60.60
2022-10-06T11:18:59.654Z,62.00
2022-10-06T11:21:34.585Z,63.60
2022-10-06T11:24:36.510Z,62.60
2022-10-06T11:27:37.676Z,62.20
2022-10-06T11:30:14.873Z,63.10
2022-10-06T11:33:01.306Z,65.50
2022-10-06T11:35:36.845Z,67.70
2022-10-06T11:38:32.797Z,69.30
2022-10-06T11:41:27.190Z,67.10
2022-10-06T11:44:00.494Z,64.70
2022-10-06T11:46:54.500Z,62.10
2022-10-06T11:49:30.847Z,61.40
2022-10-06T11:52:08.208Z,60.70
2022-10-06T11:54:45.071Z,61.10
2022-10-06T11:57:29.630Z,62.50
2022-10-06T12:00:17.250Z,62.80
2022-10-06T12:02:45.813Z,64.50
2022-10-06T12:05:37.649Z,65.10
2022-10-06T12:08:00.254Z,65.60
2022-10-06T12:10:30.000Z,67.30
2022-10-06T12:13:07.273Z,67.70
2022-10-06T12:19:22.704Z,65.40
2022-10-06T12:22:08.656Z,64.00
2022-10-06T12:24:53.201Z,64.30
2022-10-06T12:27:28.563Z,63.20
2022-10-06T12:30:20.303Z,63.00
2022-10-06T12:32:54.020Z,61.90
2022-10-06T12:35:36.541Z,60.50
2022-10-06T12:38:05.937Z,58.50
2022-10-06T12:40:41.984Z,58.90
2022-10-06T12:43:14.852Z,59.20
2022-10-06T12:45:46.695Z,59.20
2022-10-06T12:48:52.467Z,60.00
2022-10-06T12:51:42.084Z,61.30
2022-10-06T12:54:20.307Z,62.10
2022-10-06T12:56:59.828Z,62.70
2022-10-06T12:59:32.068Z,62.90
2022-10-06T13:02:02.834Z,64.10
2022-10-06T13:04:39.040Z,64.80
2022-10-06T13:07:16.058Z,64.70
2022-10-06T13:09:43.282Z,64.00
2022-10-06T13:12:31.342Z,63.20
2022-10-06T13:15:25.324Z,62.50
2022-10-06T13:17:53.961Z,61.80
2022-10-06T13:20:33.325Z,62.70
2022-10-06T13:23:12.487Z,62.40
2022-10-06T13:25:47.214Z,62.60
2022-10-06T13:28:33.040Z,62.20
2022-10-06T13:33:40.106Z,62.30
2022-10-06T13:36:08.819Z,62.40
2022-10-06T13:38:36.849Z,61.70
2022-10-06T13:41:07.324Z,63.60
2022-10-06T13:43:44.514Z,64.80
2022-10-06T13:46:14.929Z,66.70
2022-10-06T13:48:52.444Z,67.50
2022-10-06T13:51:25.728Z,68.00
2022-10-06T13:53:52.835Z,68.50
2022-10-06T13:59:34.193Z,67.20
2022-10-06T14:02:19.838Z,65.60
2022-10-06T14:05:23.822Z,66.50
2022-10-06T14:07:51.125Z,65.90
2022-10-06T14:13:00.875Z,64.30
2022-10-06T14:15:33.404Z,64.00
2022-10-06T14:18:03.000Z,64.70
2022-10-06T14:20:47.868Z,65.70
2022-10-06T14:23:50.080Z,64.80
2022-10-06T14:26:19.167Z,64.70
2022-10-06T14:28:52.665Z,65.00
2022-10-06T14:31:24.040Z,65.20
2022-10-06T14:33:52.574Z,64.70
2022-10-06T14:36:23.920Z,64.50
2022-10-06T14:38:51.613Z,65.50
2022-10-06T14:41:19.453Z,66.20
2022-10-06T14:43:51.584Z,66.40
2022-10-06T14:46:18.353Z,64.90
2022-10-06T14:48:45.291Z,65.00
2022-10-06T14:51:12.085Z,64.80
2022-10-06T14:53:39.402Z,64.70
2022-10-06T14:56:10.088Z,64.50
2022-10-06T14:58:38.626Z,64.10
2022-10-06T15:01:07.319Z,64.50
2022-10-06T15:03:35.580Z,64.30
2022-10-06T15:06:23.783Z,64.20
2022-10-06T15:08:51.901Z,65.30
2022-10-06T15:11:24.141Z,65.80
2022-10-06T15:13:51.645Z,66.00
2022-10-06T15:16:18.381Z,65.80
2022-10-06T15:18:45.177Z,66.30
2022-10-06T15:21:11.961Z,66.50
2022-10-06T15:23:39.409Z,65.80
2022-10-06T15:26:25.598Z,65.90
2022-10-06T15:29:01.524Z,66.70
2022-10-06T15:31:34.101Z,68.30
2022-10-06T15:34:03.455Z,69.30
2022-10-06T15:36:33.579Z,70.30
2022-10-06T15:39:08.086Z,70.80
2022-10-06T15:41:39.455Z,71.90
2022-10-06T15:44:07.291Z,73.30
2022-10-06T15:46:39.952Z,73.60
2022-10-06T15:49:08.053Z,74.70
2022-10-06T15:51:38.223Z,75.70
2022-10-06T15:54:05.474Z,76.50
2022-10-06T15:56:33.135Z,77.20
2022-10-06T15:59:00.915Z,77.40
2022-10-06T16:01:35.331Z,78.20
2022-10-06T16:04:12.498Z,78.80
2022-10-06T16:06:55.642Z,78.90
2022-10-06T16:09:28.395Z,79.10
2022-10-06T16:11:56.795Z,79.70
2022-10-06T16:14:24.631Z,79.30
2022-10-06T16:16:52.016Z,80.20
2022-10-06T16:19:20.576Z,80.60
2022-10-06T16:21:50.275Z,81.00
2022-10-06T16:24:22.532Z,81.10
2022-10-06T16:26:51.035Z,81.40
2022-10-06T16:29:19.627Z,81.40
2022-10-06T16:31:46.632Z,82.00
2022-10-06T16:34:13.909Z,82.30
2022-10-06T16:36:41.114Z,82.40
2022-10-06T16:39:21.619Z,82.80
2022-10-06T16:41:49.658Z,83.10
2022-10-06T16:44:17.451Z,83.30
2022-10-06T16:46:44.849Z,83.50
2022-10-06T16:49:13.674Z,83.00
2022-10-06T16:51:43.288Z,83.20
2022-10-06T16:54:12.614Z,83.10
2022-10-06T16:56:42.037Z,83.80
2022-10-06T16:59:16.240Z,84.60
2022-10-06T17:01:43.558Z,84.90
2022-10-06T17:04:16.290Z,84.50
2022-10-06T17:06:45.432Z,85.00
2022-10-06T17:09:14.584Z,85.60
2022-10-06T17:11:43.833Z,86.40
2022-10-06T17:14:11.863Z,86.30
2022-10-06T17:16:42.284Z,86.10
2022-10-06T17:19:12.238Z,86.40
2022-10-06T17:21:48.789Z,86.60
2022-10-06T17:24:18.404Z,87.20
2022-10-06T17:26:47.267Z,86.90
2022-10-06T17:29:18.609Z,86.40
2022-10-06T17:31:46.432Z,86.80
2022-10-06T17:34:20.087Z,86.80
2022-10-06T17:36:49.431Z,86.90
2022-10-06T17:39:18.851Z,87.40
2022-10-06T17:41:47.065Z,87.60
2022-10-06T17:44:21.092Z,88.40
2022-10-06T17:46:50.914Z,88.90
2022-10-06T17:49:22.179Z,89.30
2022-10-06T17:51:49.917Z,88.80
2022-10-06T17:54:19.901Z,88.60
2022-10-06T17:56:48.489Z,88.10
2022-10-06T17:59:23.750Z,88.20
2022-10-06T18:01:51.635Z,88.40
2022-10-06T18:04:19.268Z,88.90
2022-10-06T18:06:47.698Z,89.30
2022-10-06T18:09:15.909Z,89.50
2022-10-06T18:11:45.737Z,89.20
2022-10-06T18:14:21.232Z,89.30
2022-10-06T18:16:55.744Z,90.00
2022-10-06T18:19:29.996Z,90.00
2022-10-06T18:22:03.285Z,90.90
2022-10-06T18:24:31.364Z,91.10
2022-10-06T18:27:00.347Z,91.00
2022-10-06T18:29:32.536Z,91.20
2022-10-06T18:37:35.053Z,90.90
2022-10-06T18:40:05.800Z,90.70
2022-10-06T18:42:32.785Z,90.70
2022-10-06T18:45:17.988Z,90.70
2022-10-06T18:48:03.551Z,90.60
2022-10-06T18:50:30.946Z,90.50
2022-10-06T18:52:57.756Z,90.80
2022-10-06T18:55:26.284Z,91.10
2022-10-06T18:57:53.374Z,91.30
2022-10-06T19:00:20.146Z,91.80
2022-10-06T19:02:49.148Z,91.90
2022-10-06T19:05:17.355Z,91.90
2022-10-06T19:07:44.708Z,91.60
2022-10-06T19:10:11.918Z,91.80
2022-10-06T19:12:38.892Z,91.90
2022-10-06T19:15:06.030Z,91.70
2022-10-06T19:17:32.713Z,91.50
2022-10-06T19:19:59.422Z,91.50
2022-10-06T19:22:26.092Z,91.50
2022-10-06T19:24:52.918Z,92.10
2022-10-06T19:27:24.196Z,92.80
2022-10-06T19:29:53.898Z,93.50
2022-10-06T19:32:24.243Z,93.70
2022-10-06T19:34:50.960Z,93.70
2022-10-06T19:37:18.655Z,93.90
2022-10-06T19:39:46.977Z,94.20
2022-10-06T19:42:34.146Z,93.80
2022-10-06T19:45:01.200Z,93.80
2022-10-06T19:47:28.821Z,93.70
2022-10-06T19:50:00.789Z,93.70
2022-10-06T19:52:31.159Z,93.60
2022-10-06T19:54:58.012Z,93.20
2022-10-06T19:57:29.209Z,93.10
2022-10-06T19:59:55.848Z,92.90
2022-10-06T20:02:23.413Z,92.80
2022-10-06T20:04:50.544Z,92.90
2022-10-06T20:07:21.407Z,93.40
2022-10-06T20:09:48.395Z,93.30
2022-10-06T20:12:18.658Z,93.30
2022-10-06T20:14:47.865Z,93.20
2022-10-06T20:17:15.161Z,93.20
2022-10-06T20:19:41.792Z,92.80
2022-10-06T20:22:08.447Z,92.60
2022-10-06T20:24:35.131Z,92.90
2022-10-06T20:27:01.888Z,92.90
2022-10-06T20:29:28.813Z,92.50
2022-10-06T20:31:58.212Z,92.30
2022-10-06T20:34:32.960Z,92.40
2022-10-06T20:37:02.478Z,93.00
2022-10-06T20:39:50.739Z,93.10
2022-10-06T20:42:19.108Z,93.00
2022-10-06T20:44:45.953Z,92.80
2022-10-06T20:47:13.406Z,92.80
2022-10-06T20:49:42.234Z,93.10
2022-10-06T20:52:09.907Z,93.30
2022-10-06T20:54:37.157Z,93.10
2022-10-06T20:57:06.034Z,93.00
2022-10-06T20:59:35.152Z,92.80
2022-10-06T21:02:03.219Z,93.40
2022-10-06T21:04:30.440Z,94.10
2022-10-06T21:06:57.773Z,94.50
2022-10-06T21:09:25.098Z,94.60
2022-10-06T21:11:52.491Z,94.60
2022-10-06T21:14:20.039Z,94.20
2022-10-06T21:16:48.311Z,94.00
2022-10-06T21:19:17.302Z,94.00
2022-10-06T21:21:49.913Z,93.60
2022-10-06T21:24:17.297Z,93.60
2022-10-06T21:26:44.438Z,94.00
2022-10-06T21:29:14.177Z,94.50
2022-10-06T21:31:41.905Z,94.60
2022-10-06T21:34:09.132Z,94.60
2022-10-06T21:36:36.201Z,94.70
2022-10-06T21:39:05.830Z,94.70
2022-10-06T21:41:41.120Z,94.90
2022-10-06T21:44:16.615Z,94.90
2022-10-06T21:46:48.115Z,94.90
2022-10-06T21:49:20.385Z,94.60
2022-10-06T21:51:50.514Z,94.50
2022-10-06T21:54:17.415Z,94.40
2022-10-06T21:56:44.362Z,94.40
2022-10-06T21:59:11.619Z,94.30
2022-10-06T22:01:41.302Z,94.30
2022-10-06T22:04:08.638Z,94.00
2022-10-06T22:06:39.882Z,94.40
2022-10-06T22:09:08.361Z,94.80
2022-10-06T22:11:37.756Z,95.00
2022-10-06T22:14:06.908Z,94.90
2022-10-06T22:16:35.853Z,94.70
2022-10-06T22:19:05.064Z,94.50
2022-10-06T22:21:37.909Z,94.30
2022-10-06T22:24:10.131Z,95.00
2022-10-06T22:26:39.487Z,95.10
2022-10-06T22:29:13.119Z,95.20
2022-10-06T22:31:42.002Z,95.00
2022-10-06T22:34:11.593Z,95.20
2022-10-06T22:36:39.063Z,95.10
2022-10-06T22:39:06.271Z,94.90
2022-10-06T22:41:33.188Z,94.70
2022-10-06T22:44:00.290Z,94.40
2022-10-06T22:46:29.875Z,94.60
2022-10-06T22:48:56.927Z,94.40
2022-10-06T22:51:24.352Z,94.60
2022-10-06T22:53:59.299Z,94.80
2022-10-06T22:56:28.292Z,94.50
2022-10-06T22:58:57.047Z,94.20
2022-10-06T23:01:23.900Z,93.80
2022-10-06T23:03:50.722Z,93.70
2022-10-06T23:06:18.115Z,93.80
2022-10-06T23:08:45.429Z,93.90
2022-10-06T23:11:17.987Z,94.30
2022-10-06T23:13:45.639Z,94.10
2022-10-06T23:16:15.107Z,94.30
2022-10-06T23:18:43.335Z,94.10
2022-10-06T23:21:14.005Z,94.30
2022-10-06T23:23:40.850Z,94.10
2022-10-06T23:26:13.329Z,94.10
2022-10-06T23:28:40.901Z,94.00
2022-10-06T23:31:09.426Z,94.00
2022-10-06T23:33:36.574Z,93.80
2022-10-06T23:36:12.076Z,93.40
2022-10-06T23:38:39.440Z,93.10
2022-10-06T23:41:07.176Z,92.70
2022-10-06T23:43:34.717Z,93.20
2022-10-06T23:46:02.500Z,93.60
2022-10-06T23:48:30.069Z,93.80
2022-10-06T23:51:02.289Z,94.10
2022-10-06T23:53:30.847Z,94.30
2022-10-06T23:55:58.581Z,94.80
2022-10-06T23:58:26.482Z,94.80
